Time;durP1;ratioP1;P1;durP2;ratioP2;P2;SDS_P1;SDS_P2;PMS_P1;PMS_P2;Temp;Humidity;BMP_temperature;BMP_pressure;BME280_temperature;BME280_humidity;BME280_pressure;Samples;Min_cycle;Max_cycle;Signal;HPM_P1;HPM_P2
2023/04/07 00:02:18;;;;;;;39.05;16.85;;;;;;;9.52;46.46;101305.31;5027138;28;20136;-83
2023/04/07 00:04:50;;;;;;;42.10;16.35;;;;;;;9.20;46.94;101252.88;5006495;28;20636;-82
2023/04/07 00:07:31;;;;;;;26.75;15.25;;;;;;;9.36;46.14;101256.06;4999625;28;20076;-81
2023/04/07 00:10:13;;;;;;;27.70;14.23;;;;;;;9.59;44.95;101270.31;5009488;28;20398;-81
2023/04/07 00:12:54;;;;;;;28.40;14.30;;;;;;;9.80;43.94;101289.03;5000180;28;20109;-82
2023/04/07 00:15:24;;;;;;;32.50;14.90;;;;;;;9.83;43.62;101285.34;4987447;28;20050;-81
2023/04/07 00:17:50;;;;;;;27.80;14.38;;;;;;;9.54;43.25;101251.25;4999267;28;20699;-83
2023/04/07 00:20:17;;;;;;;33.35;14.43;;;;;;;9.45;44.67;101251.91;5006234;28;20053;-82
2023/04/07 00:22:44;;;;;;;34.22;15.32;;;;;;;9.61;44.04;101278.13;5008544;28;20042;-82
2023/04/07 00:25:11;;;;;;;32.80;14.73;;;;;;;9.52;44.25;101273.53;5008499;28;20041;-80
2023/04/07 00:27:38;;;;;;;31.80;15.68;;;;;;;9.49;44.98;101281.69;5002903;28;20703;-82
2023/04/07 00:30:07;;;;;;;28.00;14.82;;;;;;;9.47;45.13;101276.50;5006716;28;20420;-83
2023/04/07 00:32:36;;;;;;;38.40;14.48;;;;;;;9.27;45.66;101240.00;5009765;28;20160;-80
2023/04/07 00:35:04;;;;;;;55.03;17.45;;;;;;;9.33;45.03;101252.81;5008830;28;20045;-79
2023/04/07 00:37:31;;;;;;;38.40;15.05;;;;;;;9.50;44.68;101273.63;5002803;28;20419;-81
2023/04/07 00:40:01;;;;;;;35.10;14.45;;;;;;;9.58;44.00;101275.69;5022095;28;20119;-81
2023/04/07 00:42:28;;;;;;;39.63;13.88;;;;;;;9.57;44.08;101266.06;5023466;28;20144;-81
2023/04/07 00:45:03;;;;;;;26.15;13.15;;;;;;;9.47;43.67;101250.00;5006557;28;20050;-83
2023/04/07 00:47:29;;;;;;;20.98;12.95;;;;;;;9.45;43.10;101238.66;4990243;28;20329;-82
2023/04/07 00:49:59;;;;;;;21.73;13.65;;;;;;;9.72;43.01;101266.72;4998916;28;20060;-82
2023/04/07 00:52:27;;;;;;;21.17;12.80;;;;;;;9.55;42.47;101244.13;5008109;28;20119;-82
2023/04/07 00:54:59;;;;;;;21.88;13.20;;;;;;;9.35;43.18;101211.16;5007523;28;20115;-80
2023/04/07 00:57:29;;;;;;;21.88;12.43;;;;;;;9.66;43.66;101265.41;5002180;28;20278;-84
2023/04/07 00:59:59;;;;;;;24.00;12.65;;;;;;;9.57;44.08;101266.91;5010078;28;20140;-84
2023/04/07 01:02:37;;;;;;;25.15;12.93;;;;;;;9.08;43.37;101196.34;5021233;28;20061;-82
2023/04/07 01:05:23;;;;;;;27.17;14.02;;;;;;;9.40;42.92;101269.97;5011722;28;20050;-80
2023/04/07 01:08:28;;;;;;;23.95;13.15;;;;;;;9.25;43.40;101260.47;5024744;28;20053;-81
2023/04/07 01:11:04;;;;;;;26.10;14.13;;;;;;;9.31;43.31;101270.63;5005758;28;20232;-83
2023/04/07 01:13:59;;;;;;;22.83;12.65;;;;;;;9.32;43.45;101264.34;5007709;28;20446;-83
2023/04/07 01:20:13;;;;;;;29.42;12.48;;;;;;;8.78;44.13;101200.22;4993727;28;20057;-80
2023/04/07 01:22:54;;;;;;;44.53;13.85;;;;;;;9.10;44.37;101242.09;4984071;28;20484;-84
2023/04/07 01:25:38;;;;;;;61.53;15.13;;;;;;;9.31;43.82;101260.03;5001389;28;20052;-82
2023/04/07 01:28:28;;;;;;;43.45;14.48;;;;;;;9.21;43.95;101246.59;4985541;28;20050;-80
2023/04/07 01:31:03;;;;;;;36.63;13.88;;;;;;;9.06;44.76;101240.63;4981178;28;20200;-82
2023/04/07 01:33:44;;;;;;;31.98;13.48;;;;;;;9.03;45.40;101214.38;4988841;28;20070;-81
2023/04/07 01:36:16;;;;;;;33.22;13.85;;;;;;;8.61;45.16;101141.53;4983126;28;20136;-82
2023/04/07 01:38:45;;;;;;;36.10;14.48;;;;;;;8.93;45.33;101214.19;4989189;28;20621;-81
2023/04/07 01:44:18;;;;;;;28.23;12.52;;;;;;;9.14;44.84;101256.78;4993344;28;20055;-83
2023/04/07 01:46:59;;;;;;;36.15;13.77;;;;;;;9.13;44.42;101236.56;4990192;28;20042;-82
2023/04/07 01:49:31;;;;;;;24.45;11.90;;;;;;;9.04;45.45;101224.00;4985837;28;20422;-83
2023/04/07 01:52:04;;;;;;;34.92;12.90;;;;;;;9.16;45.27;101244.28;5010563;28;20275;-79
2023/04/07 01:54:32;;;;;;;34.65;13.85;;;;;;;9.17;44.81;101235.41;5012116;28;20414;-83
2023/04/07 01:57:00;;;;;;;27.40;12.57;;;;;;;9.02;45.74;101215.31;5007730;28;20049;-82
2023/04/07 01:59:39;;;;;;;23.42;12.93;;;;;;;8.76;44.92;101173.03;5008982;28;20695;-81
2023/04/07 02:02:06;;;;;;;32.10;12.73;;;;;;;9.13;44.55;101222.50;5006402;28;20548;-81
2023/04/07 02:04:53;;;;;;;40.40;14.20;;;;;;;8.76;44.57;101154.53;5005836;28;20053;-82
2023/04/07 02:07:27;;;;;;;21.98;12.32;;;;;;;9.17;45.18;101238.06;5005230;28;20127;-82
2023/04/07 02:09:59;;;;;;;20.45;12.32;;;;;;;9.15;44.32;101239.09;5011061;28;20373;-81
2023/04/07 02:12:27;;;;;;;;;;;;;;;9.00;45.28;101241.06;5011556;28;20551;-83
2023/04/07 02:14:55;;;;;;;20.45;12.68;;;;;;;8.95;45.00;101232.59;5029377;28;20010;-81
2023/04/07 02:17:41;;;;;;;22.00;12.85;;;;;;;8.64;45.39;101191.59;5026758;28;20140;-81
2023/04/07 02:20:14;;;;;;;29.33;12.48;;;;;;;8.72;45.58;101205.97;5014900;28;20042;-81
2023/04/07 02:22:44;;;;;;;21.00;12.57;;;;;;;8.76;45.73;101211.88;4986337;28;20053;-82
2023/04/07 02:25:31;;;;;;;21.67;12.95;;;;;;;8.93;45.53;101229.22;4987093;28;20046;-79
2023/04/07 02:27:59;;;;;;;22.10;13.32;;;;;;;9.05;45.49;101223.03;4989575;28;20057;-81
2023/04/07 02:30:27;;;;;;;21.92;12.88;;;;;;;9.12;45.13;101224.28;4991617;28;20404;-82
2023/04/07 02:32:54;;;;;;;23.63;12.35;;;;;;;9.09;45.21;101213.91;4985141;28;20140;-83
2023/04/07 02:35:21;;;;;;;23.35;13.52;;;;;;;9.05;46.08;101212.44;5003813;28;20379;-80
2023/04/07 02:37:49;;;;;;;21.35;12.27;;;;;;;9.01;46.26;101216.28;5008709;28;20060;-82
2023/04/07 02:40:19;;;;;;;18.55;11.95;;;;;;;8.42;46.50;101123.47;5007789;28;20481;-79
2023/04/07 02:42:51;;;;;;;21.00;13.57;;;;;;;8.92;46.54;101201.06;5008141;28;20149;-81
2023/04/07 02:45:21;;;;;;;24.15;12.23;;;;;;;8.92;46.73;101209.84;5012859;28;20060;-82
2023/04/07 02:47:50;;;;;;;;;;;;;;;8.87;45.93;101211.13;5003404;28;20099;-82
2023/04/07 02:50:17;;;;;;;23.70;12.18;;;;;;;8.87;46.40;101209.31;5006991;28;19929;-82
2023/04/07 02:52:48;;;;;;;23.35;12.40;;;;;;;8.85;46.68;101199.81;5026144;28;20051;-82
2023/04/07 02:55:22;;;;;;;30.83;14.30;;;;;;;8.89;46.74;101201.28;5023973;28;20060;-82
2023/04/07 02:57:49;;;;;;;24.58;13.27;;;;;;;8.87;47.05;101211.13;5013961;28;20081;-80
2023/04/07 03:00:20;;;;;;;25.40;12.80;;;;;;;8.81;46.33;101203.63;5007317;28;20184;-82
2023/04/07 03:02:49;;;;;;;26.13;13.00;;;;;;;8.68;46.08;101201.84;5026793;28;20524;-81
2023/04/07 03:05:33;;;;;;;21.40;12.73;;;;;;;8.43;46.23;101162.22;5007549;28;20712;-80
2023/04/07 03:08:00;;;;;;;24.02;13.07;;;;;;;8.71;46.61;101206.94;5009896;28;20061;-82
2023/04/07 03:10:27;;;;;;;20.55;12.00;;;;;;;8.68;46.21;101203.66;5013502;28;20042;-80
2023/04/07 03:13:18;;;;;;;26.83;12.65;;;;;;;8.49;46.12;101167.91;5023656;28;20045;-79
2023/04/07 03:15:46;;;;;;;21.38;11.85;;;;;;;7.52;46.07;101001.97;5010486;28;20049;-82
2023/04/07 03:18:12;;;;;;;34.80;13.88;;;;;;;8.87;46.01;101195.25;4988247;28;20500;-82
2023/04/07 03:20:43;;;;;;;18.92;12.18;;;;;;;8.77;47.16;101193.25;5002785;28;20103;-79
2023/04/07 03:23:15;;;;;;;26.35;13.57;;;;;;;8.52;45.78;101158.94;4987575;28;20079;-80
2023/04/07 03:25:42;;;;;;;25.20;13.18;;;;;;;7.82;46.40;101049.19;4988093;28;20042;-81
2023/04/07 03:28:11;;;;;;;24.05;13.45;;;;;;;8.60;45.99;101190.97;4989066;28;20046;-83
2023/04/07 03:30:47;;;;;;;19.90;11.70;;;;;;;8.47;46.01;101196.31;4989804;28;20050;-81
2023/04/07 03:33:14;;;;;;;24.27;14.40;;;;;;;8.20;46.58;101167.28;4992868;28;20050;-82
2023/04/07 03:35:41;;;;;;;25.08;13.30;;;;;;;8.42;46.99;101202.84;4991555;28;20137;-81
2023/04/07 03:38:08;;;;;;;29.63;13.10;;;;;;;8.39;46.14;101201.22;4988677;28;20061;-80
2023/04/07 03:40:36;;;;;;;28.08;12.98;;;;;;;8.58;46.15;101208.75;4981706;28;20096;-82
2023/04/07 03:43:11;;;;;;;20.30;11.88;;;;;;;8.46;45.78;101177.88;4986443;28;20278;-80
2023/04/07 03:45:39;;;;;;;21.27;10.57;;;;;;;8.55;45.40;101201.03;4990401;28;20053;-81
2023/04/07 03:48:10;;;;;;;27.20;11.73;;;;;;;8.31;45.92;101169.19;4989141;28;20256;-81
2023/04/07 03:50:39;;;;;;;22.27;11.97;;;;;;;8.35;45.40;101184.75;4989325;28;20147;-80
2023/04/07 03:53:15;;;;;;;17.30;11.35;;;;;;;8.38;43.91;101188.13;4988424;28;20798;-82
2023/04/07 03:55:43;;;;;;;22.85;11.88;;;;;;;8.25;43.92;101161.69;4991560;28;20137;-82
2023/04/07 03:58:12;;;;;;;22.33;11.48;;;;;;;8.50;44.97;101192.59;4992249;28;20104;-81
2023/04/07 04:00:42;;;;;;;20.42;11.23;;;;;;;8.34;44.79;101183.03;4995467;28;20385;-81
2023/04/07 04:03:10;;;;;;;17.65;11.35;;;;;;;8.41;44.52;101190.59;4989953;28;20053;-82
2023/04/07 04:05:41;;;;;;;30.98;14.63;;;;;;;8.54;44.46;101217.84;4989211;28;20058;-81
2023/04/07 04:08:09;;;;;;;18.58;11.55;;;;;;;8.68;44.24;101225.69;4989534;28;20049;-83
2023/04/07 04:10:36;;;;;;;21.40;12.27;;;;;;;8.57;44.00;101193.84;4989245;28;20099;-81
2023/04/07 04:13:05;;;;;;;25.35;12.48;;;;;;;8.40;44.29;101159.78;4996072;28;20267;-80
2023/04/07 04:15:37;;;;;;;22.95;12.32;;;;;;;8.74;44.67;101214.66;4994617;28;20053;-80
2023/04/07 04:18:10;;;;;;;27.70;13.38;;;;;;;8.66;44.21;101217.00;5009202;28;20096;-80
2023/04/07 04:20:40;;;;;;;27.58;12.18;;;;;;;8.64;45.08;101226.88;5008956;28;20049;-81
2023/04/07 04:23:07;;;;;;;22.35;13.25;;;;;;;8.47;45.00;101187.50;5008536;28;20060;-83
2023/04/07 04:25:38;;;;;;;21.50;12.07;;;;;;;8.67;44.81;101213.41;5008805;28;20550;-80
2023/04/07 04:28:09;;;;;;;19.80;13.40;;;;;;;8.47;44.42;101185.72;5004263;28;20056;-81
2023/04/07 04:30:36;;;;;;;29.13;13.60;;;;;;;8.65;44.80;101210.03;5009091;28;20057;-82
2023/04/07 04:33:03;;;;;;;21.80;14.20;;;;;;;8.59;45.10;101214.91;4991890;28;20038;-82
2023/04/07 04:35:37;;;;;;;29.73;14.43;;;;;;;8.63;44.47;101222.50;4984750;28;20057;-81
2023/04/07 04:38:09;;;;;;;21.10;13.10;;;;;;;7.12;45.69;100998.59;4990113;28;20064;-83
2023/04/07 04:40:36;;;;;;;31.27;13.25;;;;;;;8.30;46.30;101218.63;4991065;28;20407;-80
2023/04/07 04:43:05;;;;;;;28.15;14.18;;;;;;;8.26;46.87;101218.94;4992852;28;20129;-80
2023/04/07 04:45:35;;;;;;;27.25;14.52;;;;;;;8.19;46.65;101226.44;4991240;28;20058;-81
2023/04/07 04:48:05;;;;;;;33.78;14.65;;;;;;;8.20;47.00;101220.19;4986919;28;20080;-82
2023/04/07 04:50:33;;;;;;;37.35;15.90;;;;;;;8.34;45.94;101206.00;4997186;28;20049;-81
2023/04/07 04:53:01;;;;;;;33.53;14.70;;;;;;;8.25;46.19;101194.28;4987413;28;20061;-83
2023/04/07 04:55:31;;;;;;;31.00;15.38;;;;;;;8.40;45.71;101225.91;5001872;28;20053;-82
2023/04/07 04:58:13;;;;;;;33.60;13.95;;;;;;;8.29;45.10;101179.88;5012249;28;20503;-79
2023/04/07 05:00:42;;;;;;;27.73;15.00;;;;;;;8.27;45.59;101173.84;5006841;28;20513;-81
2023/04/07 05:03:09;;;;;;;31.65;15.82;;;;;;;8.31;45.59;101196.47;4996761;28;20058;-81
2023/04/07 05:05:37;;;;;;;26.48;15.38;;;;;;;8.51;45.25;101223.38;4994261;28;20042;-82
2023/04/07 05:08:04;;;;;;;29.48;16.15;;;;;;;8.39;46.87;101219.75;5005269;28;20077;-82
2023/04/07 05:10:38;;;;;;;54.60;26.55;;;;;;;8.24;46.22;101184.63;5006249;28;20136;-80
2023/04/07 05:13:11;;;;;;;36.13;16.55;;;;;;;7.02;45.51;100988.66;4999803;28;20551;-80
2023/04/07 05:15:40;;;;;;;33.08;16.13;;;;;;;8.30;45.83;101204.50;5000242;28;20526;-79
2023/04/07 05:18:07;;;;;;;28.35;16.38;;;;;;;7.83;46.54;101138.09;4988595;28;20058;-81
2023/04/07 05:20:39;;;;;;;26.20;15.23;;;;;;;7.06;47.25;101027.13;4992400;28;20656;-80
2023/04/07 05:23:22;;;;;;;30.48;15.35;;;;;;;8.11;47.47;101220.84;4990360;28;20049;-80
2023/04/07 05:25:49;;;;;;;26.77;15.13;;;;;;;8.03;46.96;101217.84;4990153;28;20050;-80
2023/04/07 05:28:16;;;;;;;31.48;16.33;;;;;;;8.23;46.01;101246.44;4985538;28;20253;-79
2023/04/07 05:30:52;;;;;;;28.10;15.63;;;;;;;8.02;46.51;101217.00;4980602;28;20344;-80
2023/04/07 05:33:18;;;;;;;39.55;16.55;;;;;;;7.94;46.35;101206.13;4977739;28;20607;-80
2023/04/07 05:35:54;;;;;;;32.22;15.07;;;;;;;8.24;45.97;101258.69;4997715;28;20041;-80
2023/04/07 05:38:23;;;;;;;;;;;;;;;8.07;46.00;101261.66;4992708;28;20050;-80
2023/04/07 05:40:57;;;;;;;33.38;16.67;;;;;;;7.95;46.20;101246.63;5003207;28;19921;-81
2023/04/07 05:43:27;;;;;;;39.63;17.15;;;;;;;7.82;46.16;101226.31;4988828;28;20070;-80
2023/04/07 05:45:56;;;;;;;30.40;16.50;;;;;;;7.58;46.14;101190.97;4987452;28;20320;-81
2023/04/07 05:48:26;;;;;;;32.67;16.88;;;;;;;8.03;46.31;101266.28;4983327;28;20046;-80
2023/04/07 05:50:58;;;;;;;30.10;17.15;;;;;;;8.07;46.57;101264.31;5005019;28;20649;-81
2023/04/07 05:53:25;;;;;;;36.80;17.50;;;;;;;7.97;46.14;101239.44;5009007;28;20048;-81
2023/04/07 05:55:52;;;;;;;26.33;16.45;;;;;;;7.87;46.02;101224.19;5004892;28;20164;-81
2023/04/07 05:58:19;;;;;;;34.40;17.08;;;;;;;8.06;46.45;101244.09;5018764;28;20470;-80
2023/04/07 06:00:47;;;;;;;29.27;18.13;;;;;;;8.23;46.52;101264.09;5008859;28;20132;-81
2023/04/07 06:03:15;;;;;;;34.55;18.83;;;;;;;7.95;46.28;101215.75;5002454;28;20489;-80
2023/04/07 06:05:46;;;;;;;34.67;18.00;;;;;;;8.31;47.05;101254.69;5007200;28;20046;-82
2023/04/07 06:08:13;;;;;;;30.25;18.20;;;;;;;8.16;46.84;101223.16;5002014;28;20132;-81
2023/04/07 06:10:40;;;;;;;36.80;19.60;;;;;;;8.57;46.00;101254.72;5002589;28;20060;-80
2023/04/07 06:13:10;;;;;;;32.47;19.65;;;;;;;8.44;46.53;101245.94;5006070;28;20137;-81
2023/04/07 06:15:37;;;;;;;32.60;19.08;;;;;;;8.15;46.31;101179.97;4984697;28;20060;-80
2023/04/07 06:18:03;;;;;;;42.05;20.55;;;;;;;8.69;45.85;101245.03;4982550;28;20724;-80
2023/04/07 06:20:35;;;;;;;34.38;19.63;;;;;;;8.39;46.16;101203.88;4997199;28;20430;-80
2023/04/07 06:23:01;;;;;;;34.67;21.30;;;;;;;8.44;46.75;101220.31;5008662;28;20068;-80
2023/04/07 06:25:28;;;;;;;32.15;20.13;;;;;;;8.64;46.02;101245.41;4994926;28;20519;-81
2023/04/07 06:28:12;;;;;;;37.20;20.33;;;;;;;8.68;46.27;101246.00;4983424;28;20136;-81
2023/04/07 06:30:39;;;;;;;37.95;19.45;;;;;;;8.31;46.03;101177.97;4983557;28;20415;-80
2023/04/07 06:33:09;;;;;;;38.35;20.63;;;;;;;8.56;45.97;101211.50;4986671;28;20057;-80
2023/04/07 06:35:42;;;;;;;38.03;19.88;;;;;;;8.69;46.04;101222.09;5001955;28;20881;-79
2023/04/07 06:38:11;;;;;;;37.08;21.15;;;;;;;8.77;46.19;101219.72;5003219;28;20049;-81
2023/04/07 06:40:42;;;;;;;33.53;19.35;;;;;;;9.08;45.92;101233.41;5026117;28;20042;-80
2023/04/07 06:43:13;;;;;;;41.97;22.20;;;;;;;8.55;45.61;101119.84;5024314;28;20045;-81
2023/04/07 06:45:41;;;;;;;29.17;17.45;;;;;;;8.68;44.32;101125.09;5010133;28;20045;-80
2023/04/07 06:48:09;;;;;;;33.85;18.05;;;;;;;9.41;44.11;101218.63;5019575;28;20049;-81
2023/04/07 06:50:45;;;;;;;34.53;19.52;;;;;;;8.93;44.22;101139.19;4989077;28;20177;-81
2023/04/07 06:53:12;;;;;;;33.25;18.10;;;;;;;9.41;44.25;101213.34;4978640;28;20045;-81
2023/04/07 06:55:39;;;;;;;35.70;19.65;;;;;;;9.46;44.43;101220.94;4987820;28;20116;-80
2023/04/07 06:58:06;;;;;;;30.95;18.40;;;;;;;9.47;44.28;101226.16;4985339;28;20053;-80
2023/04/07 07:03:28;;;;;;;40.65;19.40;;;;;;;9.46;44.18;101174.09;4983078;28;20140;-79
2023/04/07 07:06:07;;;;;;;47.65;20.25;;;;;;;9.66;44.11;101171.75;5002433;28;20045;-80
2023/04/07 07:08:34;;;;;;;37.35;19.10;;;;;;;10.11;43.32;101206.31;5007851;28;20119;-81
2023/04/07 07:11:08;;;;;;;37.38;17.92;;;;;;;10.21;42.87;101212.59;5004757;28;20053;-81
2023/04/07 07:13:41;;;;;;;26.83;17.23;;;;;;;10.23;42.31;101200.06;5006112;28;20057;-81
2023/04/07 07:16:08;;;;;;;35.90;17.23;;;;;;;10.36;42.66;101210.59;5002357;28;20246;-81
2023/04/07 07:18:35;;;;;;;36.20;17.98;;;;;;;10.36;42.93;101195.50;5018063;28;20056;-82
2023/04/07 07:21:04;;;;;;;33.65;18.02;;;;;;;10.46;42.69;101192.97;5003430;28;20499;-81
2023/04/07 07:23:34;;;;;;;31.40;19.45;;;;;;;10.59;43.04;101190.19;4994017;28;20046;-81
2023/04/07 07:26:02;;;;;;;26.02;16.27;;;;;;;10.76;42.42;101202.97;5001471;28;20553;-82
2023/04/07 07:28:29;;;;;;;25.17;16.88;;;;;;;10.63;41.80;101181.00;5005835;28;20055;-82
2023/04/07 07:31:09;;;;;;;27.40;17.63;;;;;;;10.81;41.90;101191.97;5007008;28;20061;-83
2023/04/07 07:33:39;;;;;;;34.42;17.27;;;;;;;10.97;41.65;101199.53;5011689;28;20045;-82
2023/04/07 07:36:12;;;;;;;29.50;16.30;;;;;;;11.00;41.53;101201.97;4979498;28;20042;-82
2023/04/07 07:38:41;;;;;;;30.08;16.60;;;;;;;10.88;41.39;101159.47;4992539;28;20158;-84
2023/04/07 07:41:08;;;;;;;30.13;15.48;;;;;;;10.99;41.14;101165.72;5013092;28;20053;-82
2023/04/07 07:43:36;;;;;;;26.17;14.93;;;;;;;11.25;40.28;101177.72;5018475;28;20049;-83
2023/04/07 07:46:04;;;;;;;32.67;16.13;;;;;;;11.08;40.12;101157.00;5011225;28;20050;-81
2023/04/07 07:48:31;;;;;;;23.58;14.43;;;;;;;11.17;40.38;101169.53;5007109;28;20464;-81
2023/04/07 07:51:01;;;;;;;37.05;15.75;;;;;;;11.40;40.03;101191.53;4998877;28;20553;-81
2023/04/07 07:53:28;;;;;;;31.30;15.63;;;;;;;11.49;40.75;101192.59;4982714;28;20134;-80
2023/04/07 07:55:54;;;;;;;38.83;16.50;;;;;;;11.30;40.29;101154.25;4983984;28;20054;-80
2023/04/07 07:58:21;;;;;;;31.38;15.23;;;;;;;11.60;40.19;101197.84;4985216;28;20475;-81
2023/04/07 08:00:53;;;;;;;30.45;14.50;;;;;;;11.62;40.34;101190.59;4995888;28;20050;-79
2023/04/07 08:03:22;;;;;;;28.80;15.57;;;;;;;11.16;39.69;101101.41;4976860;28;20427;-81
2023/04/07 08:05:49;;;;;;;29.63;14.20;;;;;;;11.54;39.85;101131.91;4984833;28;20042;-79
2023/04/07 08:08:20;;;;;;;30.40;15.75;;;;;;;11.94;39.05;101184.38;4987871;28;20058;-81
2023/04/07 08:10:47;;;;;;;24.20;13.18;;;;;;;11.81;39.39;101165.09;5002369;28;20061;-80
2023/04/07 08:13:14;;;;;;;27.27;15.07;;;;;;;12.15;38.26;101192.38;4998565;28;20050;-80
2023/04/07 08:15:41;;;;;;;29.77;16.85;;;;;;;11.95;37.03;101160.31;4985621;28;20400;-82
2023/04/07 08:18:12;;;;;;;23.45;14.93;;;;;;;12.14;36.84;101180.88;4984395;28;20052;-79
2023/04/07 08:20:38;;;;;;;30.20;16.38;;;;;;;12.06;38.04;101162.06;4985994;28;20052;-81
2023/04/07 08:23:08;;;;;;;26.35;16.67;;;;;;;11.89;38.58;101110.31;4986018;28;20046;-81
2023/04/07 08:25:35;;;;;;;31.17;16.83;;;;;;;12.49;37.69;101171.63;4996287;28;20053;-82
2023/04/07 08:28:01;;;;;;;22.55;15.02;;;;;;;12.40;38.52;101169.75;5005826;28;20053;-81
2023/04/07 08:30:29;;;;;;;34.42;16.48;;;;;;;11.95;37.86;101092.97;5007723;28;20049;-81
2023/04/07 08:32:58;;;;;;;32.60;18.23;;;;;;;12.48;39.01;101183.28;4997860;28;20132;-81
2023/04/07 08:35:29;;;;;;;33.65;17.42;;;;;;;12.62;38.79;101176.69;5004569;28;20095;-81
2023/04/07 08:38:03;;;;;;;28.60;15.63;;;;;;;12.32;38.69;101133.16;4995749;28;20062;-80
2023/04/07 08:40:31;;;;;;;37.38;17.15;;;;;;;12.52;38.19;101147.38;4988399;28;20363;-82
2023/04/07 08:42:59;;;;;;;28.35;16.63;;;;;;;12.61;37.87;101157.22;5004018;28;20053;-82
2023/04/07 08:45:27;;;;;;;30.00;16.00;;;;;;;12.69;37.67;101150.38;4998323;28;20045;-81
2023/04/07 08:48:02;;;;;;;32.33;16.35;;;;;;;12.84;37.79;101178.34;4995827;28;20388;-81
2023/04/07 08:50:31;;;;;;;31.55;18.15;;;;;;;12.79;38.28;101153.91;4999907;28;20194;-81
2023/04/07 08:53:05;;;;;;;31.90;15.93;;;;;;;12.00;37.79;101012.75;5009282;28;20773;-82
2023/04/07 08:55:35;;;;;;;27.48;15.77;;;;;;;12.00;37.71;101005.59;5001912;28;20502;-82
2023/04/07 08:58:03;;;;;;;40.75;16.55;;;;;;;12.90;38.09;101148.44;4998235;28;20053;-81
2023/04/07 09:00:32;;;;;;;41.53;17.77;;;;;;;13.05;37.45;101143.56;5007078;28;20045;-80
2023/04/07 09:03:03;;;;;;;32.13;17.55;;;;;;;13.20;37.14;101170.63;5001625;28;20054;-81
2023/04/07 09:05:35;;;;;;;30.30;18.75;;;;;;;13.15;37.65;101140.91;4990703;28;20042;-81
2023/04/07 09:08:02;;;;;;;33.10;17.65;;;;;;;12.95;37.72;101095.56;4990537;28;20042;-80
2023/04/07 09:10:31;;;;;;;38.28;18.25;;;;;;;13.50;37.62;101158.19;4983834;28;20124;-81
2023/04/07 09:12:58;;;;;;;29.73;18.08;;;;;;;13.34;37.24;101116.94;4982590;28;20252;-82
2023/04/07 09:15:31;;;;;;;28.70;18.02;;;;;;;13.38;36.92;101118.34;4986844;28;20084;-82
2023/04/07 09:17:58;;;;;;;27.73;17.13;;;;;;;13.49;36.77;101114.66;4995864;28;20285;-81
2023/04/07 09:20:50;;;;;;;33.83;17.30;;;;;;;13.85;36.92;101153.06;4989565;28;20053;-81
2023/04/07 09:23:33;;;;;;;;;;;;;;;13.96;35.88;101148.56;5003025;28;20517;-82
2023/04/07 09:26:27;;;;;;;34.22;17.75;;;;;;;13.96;35.57;101146.72;5006009;28;20116;-83
2023/04/07 09:28:54;;;;;;;33.25;17.48;;;;;;;13.99;35.93;101137.59;5009344;28;20321;-82
2023/04/07 09:31:22;;;;;;;33.53;16.65;;;;;;;14.17;35.45;101146.50;5013050;28;20052;-82
2023/04/07 09:33:49;;;;;;;33.78;17.75;;;;;;;14.28;35.25;101134.81;4999635;28;20550;-82
2023/04/07 09:36:23;;;;;;;32.45;16.65;;;;;;;14.20;35.11;101092.81;4982043;28;20045;-83
2023/04/07 09:38:51;;;;;;;30.92;17.23;;;;;;;14.58;35.71;101127.50;4983682;28;20080;-82
2023/04/07 09:41:18;;;;;;;29.48;16.30;;;;;;;14.62;34.76;101092.31;4987648;28;20049;-83
2023/04/07 09:43:45;;;;;;;33.13;18.27;;;;;;;14.85;34.57;101113.25;4989359;28;20057;-83
2023/04/07 09:46:47;;;;;;;28.63;16.92;;;;;;;14.83;34.32;101084.03;5017514;28;20050;-82
2023/04/07 09:49:19;;;;;;;35.10;17.75;;;;;;;15.11;34.73;101129.38;5003688;28;20372;-82
2023/04/07 09:51:56;;;;;;;34.78;17.63;;;;;;;15.00;34.59;101106.41;5015616;28;20049;-81
2023/04/07 09:54:41;;;;;;;39.50;19.55;;;;;;;15.14;34.61;101092.47;5021415;28;20049;-81
2023/04/07 09:57:12;;;;;;;28.52;18.45;;;;;;;15.45;34.99;101124.16;4997422;28;20041;-82
2023/04/07 09:59:43;;;;;;;30.60;18.25;;;;;;;15.55;34.85;101126.72;4996102;28;20057;-81
2023/04/07 10:02:11;;;;;;;28.98;18.75;;;;;;;15.66;34.07;101099.72;4996339;28;20061;-82
2023/04/07 10:04:40;;;;;;;32.35;19.48;;;;;;;15.38;34.21;101010.72;4995974;28;20050;-81
2023/04/07 10:07:09;;;;;;;35.03;17.93;;;;;;;16.03;34.00;101104.81;5006959;28;20119;-81
2023/04/07 10:09:36;;;;;;;31.13;17.83;;;;;;;16.16;33.34;101092.81;5003719;28;20729;-83
2023/04/07 10:12:08;;;;;;;29.13;16.83;;;;;;;16.23;33.17;101086.66;4999699;28;20037;-84
2023/04/07 10:14:35;;;;;;;29.77;17.55;;;;;;;16.51;33.25;101107.03;5009981;28;20050;-82
2023/04/07 10:17:06;;;;;;;35.35;18.08;;;;;;;16.58;32.63;101091.97;4996343;28;20399;-81
2023/04/07 10:19:38;;;;;;;36.05;19.95;;;;;;;16.05;31.99;100977.97;5003198;28;20066;-80
2023/04/07 10:22:05;;;;;;;32.65;18.77;;;;;;;16.42;31.87;101018.56;5003966;28;20300;-80
2023/04/07 10:24:45;;;;;;;32.10;16.77;;;;;;;16.35;31.78;100998.78;5005638;28;20084;-81
2023/04/07 10:27:18;;;;;;;33.50;19.00;;;;;;;16.52;31.29;101012.22;4994007;28;20046;-80
2023/04/07 10:29:49;;;;;;;29.60;17.45;;;;;;;16.87;31.27;101081.66;5006002;28;20041;-80
2023/04/07 10:32:16;;;;;;;28.48;17.70;;;;;;;16.57;30.17;101025.94;4994999;28;20085;-80
2023/04/07 10:35:00;;;;;;;31.33;17.80;;;;;;;16.47;31.50;101031.47;5007715;28;20042;-78
2023/04/07 10:37:33;;;;;;;33.03;18.38;;;;;;;16.99;31.92;101089.34;4986692;28;20499;-80
2023/04/07 10:40:18;;;;;;;34.05;19.67;;;;;;;16.94;32.48;101080.97;4977218;28;20060;-80
2023/04/07 10:42:48;;;;;;;34.47;20.27;;;;;;;16.94;33.02;101063.03;4984701;28;20046;-81
2023/04/07 10:45:54;;;;;;;39.45;21.55;;;;;;;17.32;32.04;101074.13;5007511;28;20049;-79
2023/04/07 10:48:27;;;;;;;33.95;19.75;;;;;;;17.05;32.29;100998.34;4982037;28;20081;-80
2023/04/07 10:51:03;;;;;;;32.67;19.48;;;;;;;17.78;32.24;101060.94;4985681;28;20125;-79
2023/04/07 10:53:30;;;;;;;34.80;19.50;;;;;;;17.77;31.19;101028.88;5002689;28;20053;-79
2023/04/07 10:55:58;;;;;;;37.03;20.33;;;;;;;17.99;30.86;101038.91;4988856;28;20073;-80
2023/04/07 10:58:32;;;;;;;31.75;18.52;;;;;;;18.35;30.52;101049.16;4986798;28;20112;-81
2023/04/07 11:01:06;;;;;;;33.78;18.92;;;;;;;18.25;30.21;101005.53;4984029;28;20050;-81
2023/04/07 11:03:41;;;;;;;30.27;17.08;;;;;;;18.20;29.42;100975.66;4987985;28;20050;-81
2023/04/07 11:06:17;;;;;;;36.53;20.27;;;;;;;18.52;29.83;101018.47;4984401;28;20108;-80
2023/04/07 11:08:55;;;;;;;35.25;19.85;;;;;;;18.81;30.02;101038.44;4989382;28;20064;-78
2023/04/07 11:11:42;;;;;;;42.03;21.23;;;;;;;18.92;29.55;101040.72;4986911;28;20049;-81
2023/04/07 11:14:23;;;;;;;35.50;19.17;;;;;;;19.06;29.48;101043.66;5000957;28;20060;-81
2023/04/07 11:16:57;;;;;;;37.88;19.42;;;;;;;18.83;29.54;101004.13;5010706;28;20097;-78
2023/04/07 11:19:53;;;;;;;31.77;19.70;;;;;;;18.97;28.84;100978.31;5002952;28;20049;-79
2023/04/07 11:22:22;;;;;;;30.98;19.05;;;;;;;19.24;28.67;101028.00;5000938;28;20197;-79
2023/04/07 11:25:00;;;;;;;31.27;19.23;;;;;;;19.37;28.23;101022.84;5003383;28;20045;-81
2023/04/07 11:27:31;;;;;;;33.50;19.15;;;;;;;19.31;28.48;101036.19;5010804;28;20611;-81
2023/04/07 11:30:08;;;;;;;30.40;18.58;;;;;;;19.22;28.23;101019.25;5011835;28;20346;-80
2023/04/07 11:32:36;;;;;;;33.17;19.83;;;;;;;19.43;28.56;101030.16;5002161;28;20468;-78
2023/04/07 11:35:06;;;;;;;35.10;21.27;;;;;;;19.11;28.94;100979.34;4992784;28;20423;-81
2023/04/07 11:37:39;;;;;;;47.35;22.17;;;;;;;19.29;29.11;101024.75;4983053;28;20050;-79
2023/04/07 11:40:07;;;;;;;39.38;22.40;;;;;;;19.23;28.88;101002.13;4983821;28;20208;-80
2023/04/07 11:42:39;;;;;;;32.40;19.67;;;;;;;18.99;29.08;100965.50;4987088;28;20050;-81
2023/04/07 11:45:24;;;;;;;31.40;19.42;;;;;;;19.20;29.34;100987.16;4987872;28;20056;-81